Time;durP1;ratioP1;P1;durP2;ratioP2;P2;SDS_P1;SDS_P2;PMS_P1;PMS_P2;Temp;Humidity;BMP_temperature;BMP_pressure;BME280_temperature;BME280_humidity;BME280_pressure;Samples;Min_cycle;Max_cycle;Signal;HPM_P1;HPM_P2
2021/08/21 00:00:22;;;;;;;23.08;18.48;;;16.20;99.90;;;;;;5977185;23;20024;-76
2021/08/21 00:02:48;;;;;;;21.17;17.75;;;16.10;99.90;;;;;;6005026;23;20075;-76
2021/08/21 00:05:14;;;;;;;18.75;16.77;;;16.10;99.90;;;;;;6003172;23;20031;-76
2021/08/21 00:07:39;;;;;;;19.67;16.80;;;16.10;99.90;;;;;;6027404;23;20413;-76
2021/08/21 00:10:10;;;;;;;17.45;15.63;;;16.10;99.90;;;;;;6024117;23;20031;-75
2021/08/21 00:12:40;;;;;;;;;;;16.10;99.90;;;;;;6024919;23;20085;-75
2021/08/21 00:15:12;;;;;;;19.58;16.58;;;16.10;99.90;;;;;;5980693;23;19918;-75
2021/08/21 00:17:38;;;;;;;20.35;17.10;;;16.00;99.90;;;;;;6026316;23;20469;-75
2021/08/21 00:20:09;;;;;;;17.20;15.40;;;16.00;99.90;;;;;;6026618;23;20032;-76
2021/08/21 00:22:37;;;;;;;17.35;14.57;;;16.00;99.90;;;;;;5978470;23;20030;-75
2021/08/21 00:25:03;;;;;;;20.58;16.15;;;15.90;99.90;;;;;;5978750;23;20024;-73
2021/08/21 00:27:32;;;;;;;15.10;12.55;;;15.90;99.90;;;;;;6025281;23;20353;-73
2021/08/21 00:29:59;;;;;;;18.25;14.30;;;15.90;99.90;;;;;;6006084;23;20020;-73
2021/08/21 00:32:25;;;;;;;17.48;14.13;;;15.80;99.90;;;;;;6024630;23;20020;-73
2021/08/21 00:34:50;;;;;;;19.73;15.73;;;15.80;99.90;;;;;;5979181;23;20027;-73
2021/08/21 00:37:16;;;;;;;32.72;20.02;;;15.80;99.90;;;;;;6025277;23;20027;-73
2021/08/21 00:39:42;;;;;;;32.92;20.27;;;15.70;99.90;;;;;;5978795;23;20024;-74
2021/08/21 00:42:09;;;;;;;21.83;16.52;;;15.70;99.90;;;;;;6003890;23;20071;-74
2021/08/21 00:44:36;;;;;;;27.10;19.17;;;15.70;99.90;;;;;;6004723;23;20069;-73
2021/08/21 00:47:12;;;;;;;24.80;20.33;;;15.70;99.90;;;;;;6031348;23;20062;-73
2021/08/21 00:49:44;;;;;;;24.30;19.40;;;15.70;99.90;;;;;;6011677;23;20094;-73
2021/08/21 00:52:19;;;;;;;26.52;21.13;;;15.70;99.90;;;;;;5983301;23;20094;-74
2021/08/21 00:54:45;;;;;;;27.90;20.90;;;15.70;99.90;;;;;;6010757;23;20015;-74
2021/08/21 00:57:12;;;;;;;33.00;22.42;;;15.70;99.90;;;;;;6027523;23;20446;-74
2021/08/21 00:59:39;;;;;;;36.95;23.90;;;15.70;99.90;;;;;;6026161;23;20016;-73
2021/08/21 01:02:07;;;;;;;24.88;18.95;;;15.70;99.90;;;;;;6005976;23;20453;-74
2021/08/21 01:04:46;;;;;;;30.40;22.77;;;15.70;99.90;;;;;;6004625;23;20053;-74
2021/08/21 01:07:19;;;;;;;37.05;23.77;;;15.70;99.90;;;;;;6007715;23;20330;-74
2021/08/21 01:09:46;;;;;;;25.52;21.25;;;15.70;99.90;;;;;;5982258;23;20019;-73
2021/08/21 01:12:17;;;;;;;37.60;24.45;;;15.60;99.90;;;;;;6004180;23;20079;-74
2021/08/21 01:14:44;;;;;;;24.10;19.35;;;15.60;99.90;;;;;;6039221;23;20015;-74
2021/08/21 01:17:12;;;;;;;22.42;19.58;;;15.60;99.90;;;;;;6030262;23;20020;-73
2021/08/21 01:19:43;;;;;;;26.38;20.50;;;15.60;99.90;;;;;;6036283;23;20034;-74
2021/08/21 01:22:12;;;;;;;26.30;20.35;;;15.60;99.90;;;;;;6030960;23;20078;-74
2021/08/21 01:24:39;;;;;;;22.08;18.13;;;15.50;99.90;;;;;;6033699;23;20019;-74
2021/08/21 01:27:05;;;;;;;31.42;21.60;;;15.60;99.90;;;;;;6034365;23;20019;-74
2021/08/21 01:29:31;;;;;;;28.00;21.15;;;15.50;99.90;;;;;;6009373;23;20030;-74
2021/08/21 01:32:03;;;;;;;21.73;18.10;;;15.50;99.90;;;;;;6031073;23;20030;-74
2021/08/21 01:34:29;;;;;;;23.77;18.33;;;15.50;99.90;;;;;;6033899;23;20090;-74
2021/08/21 01:36:55;;;;;;;22.83;17.83;;;15.40;99.90;;;;;;6032443;23;20019;-74
2021/08/21 01:39:20;;;;;;;23.45;19.90;;;15.40;99.90;;;;;;6009041;23;20075;-74
2021/08/21 01:41:46;;;;;;;23.60;19.73;;;15.50;99.90;;;;;;6005441;23;20508;-74
2021/08/21 01:44:14;;;;;;;25.02;20.25;;;15.50;99.90;;;;;;6005883;23;20098;-74
2021/08/21 01:46:41;;;;;;;23.23;19.02;;;15.50;99.90;;;;;;6032105;23;20483;-74
2021/08/21 01:49:11;;;;;;;23.42;19.20;;;15.50;99.90;;;;;;6031869;23;20015;-74
2021/08/21 01:51:40;;;;;;;25.40;20.00;;;15.50;99.90;;;;;;6032583;23;20066;-74
2021/08/21 01:54:09;;;;;;;31.77;21.98;;;15.50;99.90;;;;;;6031535;23;20030;-74
2021/08/21 01:56:47;;;;;;;22.80;18.52;;;15.50;99.90;;;;;;6009092;23;20163;-74
2021/08/21 01:59:30;;;;;;;29.75;22.77;;;15.50;99.90;;;;;;6028301;23;20027;-74
2021/08/21 02:01:57;;;;;;;29.73;22.38;;;15.50;99.90;;;;;;6029251;23;20393;-74
2021/08/21 02:04:23;;;;;;;29.83;21.90;;;15.50;99.90;;;;;;6006554;23;20046;-76
2021/08/21 02:06:50;;;;;;;33.30;23.52;;;15.50;99.90;;;;;;5982381;23;20563;-76
2021/08/21 02:09:18;;;;;;;24.90;19.52;;;15.50;99.90;;;;;;6006436;23;20019;-76
2021/08/21 02:11:46;;;;;;;25.80;19.98;;;15.50;99.90;;;;;;6031240;23;20033;-77
2021/08/21 02:14:13;;;;;;;26.02;20.08;;;15.50;99.90;;;;;;5984217;23;20020;-76
2021/08/21 02:16:40;;;;;;;33.92;23.38;;;15.50;99.90;;;;;;6033540;23;20015;-76
2021/08/21 02:19:09;;;;;;;26.00;19.85;;;15.50;99.90;;;;;;6006808;23;20042;-76
2021/08/21 02:21:35;;;;;;;29.67;23.50;;;15.50;99.90;;;;;;6034415;23;20023;-76
2021/08/21 02:24:01;;;;;;;31.05;22.88;;;15.50;99.90;;;;;;6005069;23;20087;-75
2021/08/21 02:26:29;;;;;;;30.08;23.05;;;15.50;99.90;;;;;;6034012;23;20016;-75
2021/08/21 02:28:58;;;;;;;31.38;22.83;;;15.50;99.90;;;;;;6037461;23;20015;-76
2021/08/21 02:31:25;;;;;;;27.10;20.90;;;15.50;99.90;;;;;;6008130;23;20031;-75
2021/08/21 02:33:51;;;;;;;28.83;21.85;;;15.50;99.90;;;;;;6032474;23;20483;-75
2021/08/21 02:36:17;;;;;;;32.60;24.02;;;15.40;99.90;;;;;;6029543;23;20031;-76
2021/08/21 02:38:45;;;;;;;37.88;27.23;;;15.40;99.90;;;;;;5980264;23;20019;-75
2021/08/21 02:41:12;;;;;;;33.20;24.02;;;15.40;99.90;;;;;;6035392;23;20019;-76
2021/08/21 02:43:41;;;;;;;42.72;27.92;;;15.40;99.90;;;;;;6033693;23;20425;-75
2021/08/21 02:46:09;;;;;;;51.75;28.40;;;15.40;99.90;;;;;;6036436;23;20015;-75
2021/08/21 02:48:35;;;;;;;30.77;22.50;;;15.30;99.90;;;;;;6033195;23;20051;-75
2021/08/21 02:51:01;;;;;;;36.03;25.08;;;15.30;99.90;;;;;;5985052;23;20043;-75
2021/08/21 02:53:27;;;;;;;38.95;26.30;;;15.20;99.90;;;;;;6032840;23;20027;-75
2021/08/21 02:56:00;;;;;;;26.48;21.40;;;15.20;99.90;;;;;;6008052;23;20025;-75
2021/08/21 02:58:27;;;;;;;36.97;24.83;;;15.20;99.90;;;;;;5985512;23;20042;-75
2021/08/21 03:00:53;;;;;;;35.35;25.17;;;15.10;99.90;;;;;;6033809;23;20027;-74
2021/08/21 03:03:19;;;;;;;41.25;27.98;;;15.10;99.90;;;;;;6030755;23;20540;-75
2021/08/21 03:05:45;;;;;;;41.90;28.65;;;15.10;99.90;;;;;;6038227;23;20023;-75
2021/08/21 03:08:11;;;;;;;31.00;23.90;;;15.10;99.90;;;;;;6005110;23;20823;-75
2021/08/21 03:10:37;;;;;;;31.52;24.73;;;15.10;99.90;;;;;;6006160;23;20015;-75
2021/08/21 03:13:03;;;;;;;33.53;25.02;;;15.00;99.90;;;;;;6034378;23;20784;-75
2021/08/21 03:15:30;;;;;;;32.03;23.75;;;15.10;99.90;;;;;;6007439;23;20393;-75
2021/08/21 03:17:57;;;;;;;30.52;22.58;;;15.10;99.90;;;;;;6032704;23;20027;-75
2021/08/21 03:20:24;;;;;;;28.38;22.23;;;15.00;99.90;;;;;;6008329;23;20043;-75
2021/08/21 03:22:50;;;;;;;32.78;22.02;;;14.90;99.90;;;;;;6007966;23;20019;-76
2021/08/21 03:25:16;;;;;;;29.58;22.77;;;14.90;99.90;;;;;;5985306;23;20026;-75
2021/08/21 03:27:42;;;;;;;32.25;25.13;;;14.90;99.90;;;;;;6031694;23;20048;-76
2021/08/21 03:30:08;;;;;;;32.22;24.90;;;14.90;99.90;;;;;;6033129;23;20019;-75
2021/08/21 03:32:34;;;;;;;26.48;21.80;;;14.80;99.90;;;;;;6031485;23;20023;-75
2021/08/21 03:35:01;;;;;;;31.70;24.50;;;14.80;99.90;;;;;;6011324;23;20448;-75
2021/08/21 03:37:27;;;;;;;49.20;27.55;;;14.80;99.90;;;;;;6031296;23;20015;-75
2021/08/21 03:39:53;;;;;;;38.97;26.17;;;14.80;99.90;;;;;;6035334;23;20053;-75
2021/08/21 03:42:19;;;;;;;28.70;23.67;;;14.80;99.90;;;;;;5982837;23;20020;-75
2021/08/21 03:44:45;;;;;;;29.70;23.88;;;14.70;99.90;;;;;;5959483;23;20053;-75
2021/08/21 03:47:11;;;;;;;31.35;24.40;;;14.70;99.90;;;;;;6030803;23;20509;-75
2021/08/21 03:49:37;;;;;;;32.53;24.65;;;14.70;99.90;;;;;;6004398;23;20030;-76
2021/08/21 03:52:04;;;;;;;33.00;24.88;;;14.80;99.90;;;;;;6030134;23;20073;-75
2021/08/21 03:54:29;;;;;;;30.38;22.23;;;14.70;99.90;;;;;;6028793;23;20468;-76
2021/08/21 03:56:57;;;;;;;26.83;22.40;;;14.70;99.90;;;;;;6006645;23;20043;-75
2021/08/21 03:59:29;;;;;;;31.58;22.83;;;14.70;99.90;;;;;;6030519;23;20031;-75
2021/08/21 04:01:55;;;;;;;32.15;23.90;;;14.80;99.90;;;;;;6004668;23;20016;-76
2021/08/21 04:04:20;;;;;;;36.45;24.67;;;14.70;99.90;;;;;;6006226;23;20026;-75
2021/08/21 04:06:47;;;;;;;27.48;21.95;;;14.70;99.90;;;;;;6026519;23;20553;-75
2021/08/21 04:09:13;;;;;;;29.77;21.67;;;14.70;99.90;;;;;;6033287;23;20039;-75
2021/08/21 04:11:39;;;;;;;31.95;23.25;;;14.70;99.90;;;;;;6028681;23;20174;-75
2021/08/21 04:14:05;;;;;;;26.67;21.33;;;14.70;99.90;;;;;;5987262;23;20023;-75
2021/08/21 04:16:34;;;;;;;27.67;22.15;;;14.60;99.90;;;;;;6007355;23;20375;-76
2021/08/21 04:19:00;;;;;;;24.40;19.77;;;14.60;99.90;;;;;;6008433;23;20531;-76
2021/08/21 04:21:26;;;;;;;27.90;20.77;;;14.60;99.90;;;;;;6032879;23;20019;-76
2021/08/21 04:23:53;;;;;;;33.35;23.98;;;14.60;99.90;;;;;;6036772;23;20030;-76
2021/08/21 04:26:20;;;;;;;23.90;19.35;;;14.60;99.90;;;;;;6032667;23;20055;-75
2021/08/21 04:28:46;;;;;;;34.55;23.77;;;14.60;99.90;;;;;;6009787;23;20027;-74
2021/08/21 04:31:12;;;;;;;25.50;20.75;;;14.60;99.90;;;;;;6035176;23;20468;-74
2021/08/21 04:33:38;;;;;;;36.13;26.88;;;14.60;99.90;;;;;;6010514;23;20019;-74
2021/08/21 04:36:04;;;;;;;40.38;27.67;;;14.60;99.90;;;;;;6034018;23;20679;-75
2021/08/21 04:38:32;;;;;;;37.47;27.65;;;14.60;99.90;;;;;;6010479;23;20019;-75
2021/08/21 04:40:58;;;;;;;49.92;32.00;;;14.60;99.90;;;;;;6031702;23;20015;-76
2021/08/21 04:43:24;;;;;;;42.22;32.65;;;14.60;99.90;;;;;;6009932;23;20023;-75
2021/08/21 04:45:50;;;;;;;77.10;42.00;;;14.60;99.90;;;;;;6031934;23;20740;-76
2021/08/21 04:48:16;;;;;;;88.68;44.33;;;14.60;99.90;;;;;;6009644;23;20026;-75
2021/08/21 04:50:42;;;;;;;96.35;45.13;;;14.60;99.90;;;;;;5984919;23;20023;-75
2021/08/21 04:53:08;;;;;;;72.40;42.00;;;14.70;99.90;;;;;;6011959;23;20105;-75
2021/08/21 04:55:34;;;;;;;52.65;36.17;;;14.70;99.90;;;;;;5986172;23;20039;-75
2021/08/21 04:58:01;;;;;;;132.30;45.13;;;14.70;99.90;;;;;;6033737;23;20067;-75
2021/08/21 05:00:34;;;;;;;80.30;38.25;;;14.70;99.90;;;;;;6007938;23;20023;-75
2021/08/21 05:03:00;;;;;;;72.00;41.08;;;14.80;99.90;;;;;;6031703;23;20079;-76
2021/08/21 05:05:28;;;;;;;94.20;45.50;;;14.80;99.90;;;;;;6008403;23;20019;-76
2021/08/21 05:07:54;;;;;;;99.25;44.63;;;14.80;99.90;;;;;;6036045;23;20026;-75
2021/08/21 05:10:20;;;;;;;154.13;47.10;;;14.80;99.90;;;;;;6033825;23;20024;-76
2021/08/21 05:12:46;;;;;;;241.90;51.22;;;14.80;99.90;;;;;;6033016;23;20049;-76
2021/08/21 05:15:16;;;;;;;431.08;68.82;;;14.80;99.90;;;;;;6011754;23;20019;-76
2021/08/21 05:17:48;;;;;;;206.07;51.08;;;14.90;99.90;;;;;;6008797;23;20020;-76
2021/08/21 05:20:25;;;;;;;159.52;46.42;;;14.90;99.90;;;;;;6012597;23;20130;-76
2021/08/21 05:23:08;;;;;;;399.95;63.70;;;14.90;99.90;;;;;;6035362;23;20019;-76
2021/08/21 05:25:39;;;;;;;362.52;63.47;;;14.90;99.90;;;;;;6031352;23;20035;-76
2021/08/21 05:28:09;;;;;;;56.47;37.88;;;14.90;99.90;;;;;;6011032;23;20027;-76
2021/08/21 05:30:38;;;;;;;156.88;46.33;;;14.90;99.90;;;;;;5985154;23;20034;-76
2021/08/21 05:33:08;;;;;;;407.90;69.85;;;14.90;99.90;;;;;;6012314;23;20019;-76
2021/08/21 05:35:35;;;;;;;52.40;36.88;;;14.90;99.90;;;;;;6008822;23;20024;-76
2021/08/21 05:38:02;;;;;;;76.15;39.17;;;14.90;99.90;;;;;;6036258;23;20019;-76
2021/08/21 05:40:28;;;;;;;70.45;39.47;;;14.90;99.90;;;;;;6034416;23;20023;-76
2021/08/21 05:42:54;;;;;;;74.65;42.67;;;14.90;99.90;;;;;;6009020;23;20098;-76
2021/08/21 05:45:19;;;;;;;327.15;61.55;;;15.00;99.90;;;;;;6031845;23;20054;-76
2021/08/21 05:47:45;;;;;;;371.20;64.90;;;15.00;99.90;;;;;;6036138;23;20524;-76
2021/08/21 05:50:12;;;;;;;169.77;52.75;;;15.00;99.90;;;;;;6035151;23;20015;-76
2021/08/21 05:52:41;;;;;;;83.05;44.30;;;15.00;99.90;;;;;;6008823;23;20074;-76
2021/08/21 05:55:07;;;;;;;154.15;49.35;;;15.10;99.90;;;;;;6009182;23;20030;-76
2021/08/21 05:57:33;;;;;;;262.17;57.75;;;15.10;99.90;;;;;;6008441;23;20027;-76
2021/08/21 05:59:59;;;;;;;116.72;47.70;;;15.10;99.90;;;;;;5986795;23;20471;-76
2021/08/21 06:02:25;;;;;;;82.57;43.65;;;15.20;99.90;;;;;;5985962;23;20023;-76
2021/08/21 06:04:52;;;;;;;79.55;43.58;;;15.20;99.90;;;;;;6033934;23;20020;-76
2021/08/21 06:07:18;;;;;;;50.03;37.10;;;15.30;99.90;;;;;;6009860;23;20143;-76
2021/08/21 06:09:44;;;;;;;71.82;37.53;;;15.30;99.90;;;;;;6007449;23;20051;-76
2021/08/21 06:12:10;;;;;;;77.85;43.28;;;15.40;99.90;;;;;;6011755;23;20464;-76
2021/08/21 06:14:38;;;;;;;71.32;41.85;;;15.40;99.90;;;;;;6032960;23;20102;-76
2021/08/21 06:17:05;;;;;;;71.63;43.55;;;15.50;99.90;;;;;;6031179;23;20043;-75
2021/08/21 06:19:32;;;;;;;92.22;41.80;;;15.50;99.90;;;;;;6007393;23;20030;-75
2021/08/21 06:21:58;;;;;;;49.30;36.97;;;15.60;99.90;;;;;;6032324;23;20098;-75
2021/08/21 06:24:24;;;;;;;133.52;46.30;;;15.60;99.90;;;;;;6034100;23;20026;-75
2021/08/21 06:26:50;;;;;;;76.25;38.55;;;15.70;99.90;;;;;;6030233;23;20019;-75
2021/08/21 06:29:16;;;;;;;74.68;40.05;;;15.70;99.90;;;;;;6034779;23;20393;-75
2021/08/21 06:31:44;;;;;;;39.97;30.55;;;15.80;99.90;;;;;;6031413;23;20023;-75
2021/08/21 06:34:10;;;;;;;38.33;29.70;;;15.80;99.90;;;;;;6011849;23;20054;-75
2021/08/21 06:36:39;;;;;;;55.40;34.53;;;15.90;99.90;;;;;;6005533;23;20397;-74
2021/08/21 06:39:05;;;;;;;47.60;32.45;;;16.00;99.90;;;;;;6034691;23;20015;-74
2021/08/21 06:41:31;;;;;;;43.17;33.65;;;16.00;99.90;;;;;;6009209;23;20019;-74
2021/08/21 06:43:57;;;;;;;71.72;35.13;;;16.00;99.90;;;;;;6036932;23;20098;-74
2021/08/21 06:46:23;;;;;;;77.00;38.90;;;16.10;99.90;;;;;;6031788;23;20502;-74
2021/08/21 06:48:52;;;;;;;33.35;29.75;;;16.20;99.90;;;;;;6008878;23;20131;-74
2021/08/21 06:51:17;;;;;;;37.20;30.27;;;16.40;99.90;;;;;;6033399;23;20022;-74
2021/08/21 06:53:43;;;;;;;32.40;28.23;;;16.50;99.90;;;;;;6008757;23;20023;-74
2021/08/21 06:56:09;;;;;;;51.70;38.20;;;16.60;99.90;;;;;;6034654;23;20019;-76
2021/08/21 06:58:35;;;;;;;46.03;35.85;;;16.60;99.90;;;;;;6033150;23;20042;-76
2021/08/21 07:01:01;;;;;;;39.05;31.45;;;16.70;99.90;;;;;;5986024;23;20019;-77
2021/08/21 07:03:27;;;;;;;37.75;31.08;;;16.80;99.90;;;;;;6007194;23;20030;-77
2021/08/21 07:05:53;;;;;;;43.85;34.72;;;17.00;99.90;;;;;;6006524;23;20461;-76
2021/08/21 07:08:19;;;;;;;48.80;38.65;;;17.10;99.90;;;;;;6007437;23;20020;-76
2021/08/21 07:10:45;;;;;;;45.00;35.55;;;17.20;99.90;;;;;;6009019;23;20026;-76
2021/08/21 07:13:11;;;;;;;46.22;37.05;;;17.20;99.90;;;;;;5983261;23;20444;-76
2021/08/21 07:15:37;;;;;;;49.25;38.95;;;17.30;99.90;;;;;;6031022;23;20056;-76
2021/08/21 07:18:03;;;;;;;48.30;40.15;;;17.40;99.90;;;;;;6010433;23;20497;-77
2021/08/21 07:20:29;;;;;;;54.03;39.78;;;17.40;99.90;;;;;;5983745;23;20114;-77
2021/08/21 07:22:55;;;;;;;59.35;42.13;;;17.40;99.90;;;;;;6007770;23;20042;-75
2021/08/21 07:25:21;;;;;;;44.63;35.28;;;17.50;99.90;;;;;;6033433;23;20016;-76
2021/08/21 07:27:47;;;;;;;52.67;38.90;;;17.50;99.90;;;;;;6031302;23;20026;-77
2021/08/21 07:30:13;;;;;;;51.88;39.30;;;17.60;99.90;;;;;;6006802;23;20031;-79
2021/08/21 07:32:39;;;;;;;56.00;40.45;;;17.50;99.90;;;;;;6030380;23;20023;-78
2021/08/21 07:35:05;;;;;;;53.45;40.10;;;17.60;99.90;;;;;;5983668;23;20684;-78
2021/08/21 07:37:33;;;;;;;56.53;41.72;;;17.70;99.90;;;;;;6029834;23;20098;-78
2021/08/21 07:39:59;;;;;;;58.30;43.53;;;17.70;99.90;;;;;;6011286;23;20015;-78
2021/08/21 07:42:25;;;;;;;62.80;44.78;;;17.80;99.90;;;;;;6031692;23;20023;-78
2021/08/21 07:44:51;;;;;;;52.88;39.83;;;17.90;99.90;;;;;;6008604;23;20023;-78
2021/08/21 07:47:17;;;;;;;59.30;42.17;;;17.90;99.90;;;;;;6030306;23;20054;-78
2021/08/21 07:49:42;;;;;;;60.45;43.72;;;17.90;99.90;;;;;;6029968;23;20026;-78
2021/08/21 07:52:08;;;;;;;52.83;40.92;;;17.90;99.90;;;;;;6034444;23;20039;-78
2021/08/21 07:54:34;;;;;;;55.08;41.85;;;17.90;99.90;;;;;;6005337;23;20503;-79
2021/08/21 07:57:00;;;;;;;55.70;42.67;;;18.00;99.90;;;;;;6036609;23;20565;-78
2021/08/21 07:59:26;;;;;;;58.72;44.30;;;18.00;99.90;;;;;;6034954;23;20015;-78
2021/08/21 08:01:52;;;;;;;55.58;41.33;;;18.00;99.90;;;;;;6008812;23;20460;-79
2021/08/21 08:04:18;;;;;;;56.72;43.22;;;18.10;99.90;;;;;;5988236;23;20019;-78
2021/08/21 08:06:44;;;;;;;56.83;43.70;;;18.20;99.90;;;;;;6005749;23;20026;-78
2021/08/21 08:09:10;;;;;;;54.50;42.75;;;18.30;99.90;;;;;;6010134;23;20015;-76
2021/08/21 08:11:35;;;;;;;54.78;43.30;;;18.40;99.90;;;;;;5983971;23;20019;-76
2021/08/21 08:14:01;;;;;;;53.00;42.22;;;18.40;99.90;;;;;;6010116;23;20020;-77
2021/08/21 08:16:27;;;;;;;52.55;41.38;;;18.50;99.90;;;;;;6011335;23;20070;-77
2021/08/21 08:18:53;;;;;;;48.28;39.83;;;18.50;99.90;;;;;;6032295;23;20026;-77
2021/08/21 08:21:21;;;;;;;52.15;40.90;;;18.50;99.90;;;;;;6036400;23;20019;-77
2021/08/21 08:23:47;;;;;;;41.20;36.15;;;18.60;99.90;;;;;;6030383;23;20326;-77
2021/08/21 08:26:13;;;;;;;53.92;42.90;;;18.70;99.90;;;;;;6036706;23;20110;-77
2021/08/21 08:28:39;;;;;;;46.95;40.05;;;18.70;99.90;;;;;;6031675;23;20449;-77
2021/08/21 08:31:05;;;;;;;52.35;43.53;;;18.80;99.90;;;;;;6012198;23;20015;-77
2021/08/21 08:33:31;;;;;;;48.85;40.58;;;18.80;99.90;;;;;;6032354;23;20027;-77
2021/08/21 08:35:57;;;;;;;48.50;39.75;;;18.90;99.90;;;;;;6007984;23;20026;-78
2021/08/21 08:38:23;;;;;;;50.13;40.80;;;18.90;99.90;;;;;;6032364;23;20019;-78
2021/08/21 08:40:49;;;;;;;49.45;40.85;;;18.90;99.90;;;;;;6008825;23;20027;-78
2021/08/21 08:43:18;;;;;;;48.88;41.17;;;19.00;99.90;;;;;;6011896;23;20019;-78
2021/08/21 08:45:44;;;;;;;41.75;37.08;;;19.00;99.90;;;;;;6007929;23;20034;-78
2021/08/21 08:48:12;;;;;;;44.50;38.13;;;19.00;99.90;;;;;;6037745;23;20019;-78
2021/08/21 08:50:40;;;;;;;48.47;40.10;;;19.10;99.90;;;;;;6008055;23;20098;-78
2021/08/21 08:53:09;;;;;;;44.83;39.40;;;19.10;99.90;;;;;;6007103;23;20082;-79
2021/08/21 08:55:35;;;;;;;43.10;37.53;;;19.20;99.90;;;;;;6011897;23;20071;-79
2021/08/21 08:58:03;;;;;;;39.42;34.92;;;19.30;99.90;;;;;;6007537;23;20034;-78
2021/08/21 09:00:35;;;;;;;43.97;36.78;;;19.40;99.90;;;;;;6032758;23;20060;-78
2021/08/21 09:03:05;;;;;;;39.08;34.85;;;19.50;99.90;;;;;;6014533;23;20019;-78
2021/08/21 09:05:41;;;;;;;41.13;36.40;;;19.60;99.90;;;;;;6033228;23;20023;-79
2021/08/21 09:08:27;;;;;;;43.80;37.28;;;19.60;99.90;;;;;;6007730;23;20019;-79
2021/08/21 09:10:58;;;;;;;42.40;36.97;;;19.70;99.90;;;;;;6032728;23;20023;-79
2021/08/21 09:13:25;;;;;;;43.47;38.80;;;19.70;99.90;;;;;;6036145;23;20023;-80
2021/08/21 09:15:58;;;;;;;41.92;36.88;;;19.70;99.90;;;;;;6034000;23;20349;-79
2021/08/21 09:18:26;;;;;;;35.92;31.45;;;19.80;99.90;;;;;;6010844;23;20074;-78
2021/08/21 09:21:03;;;;;;;39.95;33.95;;;20.00;99.90;;;;;;6034223;23;20043;-78
2021/08/21 09:23:40;;;;;;;28.60;25.40;;;20.40;99.90;;;;;;6008894;23;20393;-79
2021/08/21 09:26:21;;;;;;;30.60;27.38;;;20.70;99.90;;;;;;6036744;23;20024;-77
2021/08/21 09:28:51;;;;;;;33.83;29.90;;;21.00;99.90;;;;;;6035078;23;20293;-77
2021/08/21 09:31:22;;;;;;;35.53;30.98;;;21.00;99.90;;;;;;6033026;23;20344;-78
2021/08/21 09:33:56;;;;;;;32.35;28.75;;;21.00;99.90;;;;;;5985612;23;20023;-75
2021/08/21 09:36:43;;;;;;;31.92;28.35;;;21.00;99.90;;;;;;6032655;23;20015;-75
2021/08/21 09:39:14;;;;;;;30.52;27.23;;;20.90;99.70;;;;;;5985202;23;20102;-75
2021/08/21 09:41:57;;;;;;;28.17;25.17;;;21.00;99.90;;;;;;6035422;23;20015;-75
2021/08/21 09:44:28;;;;;;;27.10;24.20;;;21.20;99.60;;;;;;6036581;23;20080;-79
2021/08/21 09:47:15;;;;;;;25.50;22.75;;;21.40;99.20;;;;;;6008394;23;20042;-78
2021/08/21 09:49:42;;;;;;;26.45;23.65;;;21.50;98.70;;;;;;6033952;23;20023;-78
2021/08/21 09:52:14;;;;;;;25.30;22.60;;;21.60;97.70;;;;;;6036773;23;20019;-79
2021/08/21 09:55:00;;;;;;;25.77;23.08;;;21.50;97.60;;;;;;6010437;23;20019;-75
2021/08/21 09:57:31;;;;;;;29.65;26.20;;;21.30;97.40;;;;;;6033099;23;20029;-75
2021/08/21 10:00:00;;;;;;;26.48;23.58;;;21.30;98.50;;;;;;6008535;23;20027;-75
2021/08/21 10:02:31;;;;;;;25.10;22.40;;;21.50;98.90;;;;;;6007543;23;20094;-75
2021/08/21 10:04:58;;;;;;;24.30;21.67;;;21.80;97.80;;;;;;6030456;23;20270;-75
2021/08/21 10:07:32;;;;;;;25.52;22.73;;;22.00;97.30;;;;;;6036667;23;20030;-75
2021/08/21 10:10:01;;;;;;;24.10;21.50;;;22.20;96.80;;;;;;6008022;23;20026;-75
2021/08/21 10:12:28;;;;;;;19.58;17.50;;;22.40;96.30;;;;;;6035884;23;20098;-75
2021/08/21 10:14:56;;;;;;;18.02;15.52;;;22.50;95.70;;;;;;6007903;23;20026;-75
2021/08/21 10:17:22;;;;;;;19.90;17.73;;;22.60;95.10;;;;;;6033185;23;20532;-75
2021/08/21 10:19:49;;;;;;;14.93;13.32;;;22.70;95.40;;;;;;6032127;23;20023;-75
2021/08/21 10:22:18;;;;;;;16.50;14.80;;;22.90;95.20;;;;;;6004490;23;20019;-75
2021/08/21 10:24:49;;;;;;;18.52;16.63;;;23.00;94.10;;;;;;6029769;23;20488;-75
2021/08/21 10:27:30;;;;;;;18.45;16.55;;;23.00;94.00;;;;;;6030672;23;20027;-75
2021/08/21 10:30:15;;;;;;;18.08;16.15;;;23.00;93.80;;;;;;6031720;23;20023;-75
2021/08/21 10:32:43;;;;;;;22.42;20.08;;;23.00;94.00;;;;;;6008084;23;20123;-79
2021/08/21 10:35:11;;;;;;;22.35;20.10;;;22.90;93.70;;;;;;6035697;23;20022;-78
2021/08/21 10:37:43;;;;;;;20.80;18.80;;;22.70;93.70;;;;;;6007649;23;20099;-79
2021/08/21 10:40:32;;;;;;;19.75;17.80;;;22.50;93.50;;;;;;6032411;23;20027;-79
2021/08/21 10:43:03;;;;;;;24.00;21.42;;;22.40;94.40;;;;;;6020259;23;20023;-79
2021/08/21 10:45:47;;;;;;;24.17;21.70;;;22.40;94.60;;;;;;5998080;23;20693;-78
2021/08/21 10:48:22;;;;;;;23.45;21.05;;;22.40;94.70;;;;;;6026253;23;20015;-80
2021/08/21 10:50:49;;;;;;;22.20;19.92;;;22.30;94.80;;;;;;6029299;23;20074;-79
2021/08/21 10:53:25;;;;;;;20.70;18.60;;;22.20;94.50;;;;;;6007343;23;20023;-78
2021/08/21 10:55:51;;;;;;;22.13;20.02;;;22.20;94.20;;;;;;6029682;23;20449;-79
2021/08/21 10:58:21;;;;;;;20.92;18.83;;;22.10;93.50;;;;;;6006679;23;20026;-79
2021/08/21 11:00:51;;;;;;;20.83;18.80;;;22.00;93.90;;;;;;6005477;23;20030;-77
2021/08/21 11:03:37;;;;;;;20.85;18.75;;;22.10;94.20;;;;;;6032375;23;20019;-77
2021/08/21 11:06:07;;;;;;;20.08;18.13;;;22.10;94.10;;;;;;6006406;23;20023;-78
2021/08/21 11:08:58;;;;;;;16.55;14.23;;;22.10;94.40;;;;;;6031792;23;20019;-77
2021/08/21 11:11:38;;;;;;;9.45;8.27;;;22.40;93.70;;;;;;6026953;23;20023;-79
2021/08/21 11:14:24;;;;;;;11.60;10.40;;;22.50;91.90;;;;;;6032569;23;20114;-79
2021/08/21 11:16:57;;;;;;;15.60;13.50;;;22.70;91.60;;;;;;6028546;23;20045;-79
2021/08/21 11:19:28;;;;;;;19.98;17.92;;;22.90;92.40;;;;;;6028512;23;20023;-79
2021/08/21 11:22:17;;;;;;;20.38;18.27;;;23.10;92.30;;;;;;6030399;23;20071;-79
2021/08/21 11:24:52;;;;;;;18.02;16.13;;;23.10;92.10;;;;;;6028768;23;20016;-78
2021/08/21 11:27:33;;;;;;;15.98;14.27;;;23.00;91.60;;;;;;6028300;23;20453;-78
2021/08/21 11:30:11;;;;;;;15.35;13.75;;;22.80;92.00;;;;;;6028618;23;20094;-73
2021/08/21 11:32:43;;;;;;;14.70;13.30;;;22.60;91.80;;;;;;6027468;23;20019;-74
2021/08/21 11:35:19;;;;;;;14.55;13.15;;;22.70;92.10;;;;;;6028369;23;20167;-74
2021/08/21 11:37:47;;;;;;;14.18;12.18;;;22.90;91.90;;;;;;6004309;23;20025;-74
2021/08/21 11:40:16;;;;;;;16.35;14.75;;;23.00;92.20;;;;;;6033620;23;20723;-74
2021/08/21 11:42:53;;;;;;;15.80;14.20;;;23.30;92.60;;;;;;6005178;23;20500;-73
2021/08/21 11:45:21;;;;;;;13.77;12.38;;;23.60;90.90;;;;;;6031958;23;20523;-73
2021/08/21 11:47:50;;;;;;;15.07;13.55;;;23.70;91.00;;;;;;6007596;23;20050;-74
2021/08/21 11:50:23;;;;;;;13.77;12.45;;;23.80;90.40;;;;;;6010958;23;20027;-74
2021/08/21 11:52:51;;;;;;;15.07;13.48;;;23.90;90.70;;;;;;6030072;23;20020;-74
2021/08/21 11:55:18;;;;;;;13.30;12.00;;;24.00;90.60;;;;;;6034490;23;20438;-74
2021/08/21 11:57:47;;;;;;;12.55;11.35;;;24.00;90.40;;;;;;6005924;23;20054;-73
2021/08/21 12:00:22;;;;;;;9.95;8.90;;;23.80;90.00;;;;;;6008223;23;20365;-74
2021/08/21 12:02:59;;;;;;;10.23;9.23;;;23.70;90.10;;;;;;6006636;23;20019;-74
2021/08/21 12:05:29;;;;;;;14.82;13.40;;;23.70;90.80;;;;;;6010894;23;20401;-73
2021/08/21 12:07:56;;;;;;;9.90;8.90;;;23.70;90.30;;;;;;6030311;23;20019;-73
2021/08/21 12:10:22;;;;;;;9.90;8.90;;;23.60;89.20;;;;;;6031738;23;20023;-74
2021/08/21 12:12:55;;;;;;;9.57;8.57;;;23.40;88.70;;;;;;6031190;23;20347;-74
2021/08/21 12:15:26;;;;;;;6.30;5.70;;;23.50;89.50;;;;;;6031636;23;20356;-74
2021/08/21 12:17:52;;;;;;;6.60;5.60;;;23.70;88.70;;;;;;6006582;23;20051;-74
2021/08/21 12:20:18;;;;;;;8.20;7.43;;;23.80;87.90;;;;;;6031227;23;20034;-74
2021/08/21 12:22:44;;;;;;;7.82;7.13;;;23.90;85.40;;;;;;6031939;23;20027;-74
2021/08/21 12:25:11;;;;;;;7.32;6.30;;;23.90;86.80;;;;;;6035635;23;20028;-74
2021/08/21 12:27:38;;;;;;;8.23;6.80;;;23.80;87.50;;;;;;6008583;23;20398;-74
2021/08/21 12:30:15;;;;;;;8.63;7.82;;;23.80;88.10;;;;;;6005726;23;20067;-74
2021/08/21 12:32:41;;;;;;;8.82;8.02;;;23.70;88.30;;;;;;6008505;23;20479;-74
2021/08/21 12:35:33;;;;;;;9.35;7.90;;;23.60;88.40;;;;;;6009405;23;20091;-74